Time;durP1;ratioP1;P1;durP2;ratioP2;P2;SDS_P1;SDS_P2;PMS_P1;PMS_P2;Temp;Humidity;BMP_temperature;BMP_pressure;BME280_temperature;BME280_humidity;BME280_pressure;Samples;Min_cycle;Max_cycle;Signal;HPM_P1;HPM_P2
2023/12/24 00:00:30;;;;;;;16.60;2.43;;;8.90;99.90;;;;;;5106785;28;20766;-80
2023/12/24 00:02:56;;;;;;;13.82;2.80;;;8.90;99.90;;;;;;5106625;28;20407;-80
2023/12/24 00:05:22;;;;;;;13.77;3.17;;;8.90;99.90;;;;;;5096460;28;20436;-79
2023/12/24 00:07:47;;;;;;;14.30;3.27;;;8.90;99.90;;;;;;5103312;28;20886;-80
2023/12/24 00:10:13;;;;;;;14.93;3.47;;;8.90;99.90;;;;;;5106823;28;20397;-80
2023/12/24 00:12:38;;;;;;;14.73;3.20;;;8.90;99.90;;;;;;5104749;28;21376;-80
2023/12/24 00:15:05;;;;;;;13.00;2.88;;;8.90;99.90;;;;;;5106470;28;20465;-80
2023/12/24 00:17:31;;;;;;;15.43;3.10;;;8.90;99.90;;;;;;5104670;28;20420;-80
2023/12/24 00:19:58;;;;;;;14.45;2.95;;;8.90;99.90;;;;;;5105735;28;20454;-80
2023/12/24 00:22:28;;;;;;;18.90;3.13;;;8.90;99.90;;;;;;5106036;28;20401;-80
2023/12/24 00:24:53;;;;;;;13.82;2.80;;;8.90;99.90;;;;;;5107374;28;20897;-80
2023/12/24 00:27:19;;;;;;;17.73;3.60;;;8.90;99.90;;;;;;5106311;28;20403;-80
2023/12/24 00:29:44;;;;;;;13.43;2.90;;;8.90;99.90;;;;;;5097298;28;20445;-80
2023/12/24 00:32:10;;;;;;;15.02;3.58;;;8.90;99.90;;;;;;5102008;28;21044;-80
2023/12/24 00:34:36;;;;;;;19.90;3.70;;;8.90;99.90;;;;;;5099317;28;20398;-80
2023/12/24 00:37:02;;;;;;;14.32;3.10;;;8.90;99.90;;;;;;5106619;28;20427;-80
2023/12/24 00:39:27;;;;;;;14.23;3.47;;;9.00;99.90;;;;;;5097985;28;20481;-80
2023/12/24 00:41:53;;;;;;;16.47;3.03;;;8.90;99.90;;;;;;5087617;28;21182;-80
2023/12/24 00:44:18;;;;;;;13.18;2.95;;;8.90;99.90;;;;;;5088286;28;20406;-79
2023/12/24 00:46:44;;;;;;;17.57;3.60;;;8.90;99.90;;;;;;5087713;28;20501;-79
2023/12/24 00:49:10;;;;;;;15.10;3.33;;;9.00;99.90;;;;;;5089046;28;20441;-79
2023/12/24 00:51:42;;;;;;;18.25;3.17;;;8.90;99.90;;;;;;5091097;28;20441;-79
2023/12/24 00:54:08;;;;;;;15.90;3.00;;;8.90;99.90;;;;;;5107480;27;20396;-80
2023/12/24 00:56:34;;;;;;;12.77;2.95;;;9.00;99.90;;;;;;5106017;28;20430;-79
2023/12/24 00:58:59;;;;;;;13.88;3.25;;;8.90;99.90;;;;;;5107222;28;20416;-79
2023/12/24 01:01:25;;;;;;;14.27;3.37;;;9.00;99.90;;;;;;5101236;28;20406;-79
2023/12/24 01:03:50;;;;;;;13.55;3.40;;;9.00;99.90;;;;;;5088246;28;20454;-79
2023/12/24 01:06:16;;;;;;;16.17;3.47;;;9.00;99.90;;;;;;5088321;28;20899;-80
2023/12/24 01:08:42;;;;;;;13.02;2.90;;;9.00;99.90;;;;;;5097654;28;20400;-80
2023/12/24 01:11:08;;;;;;;17.02;3.60;;;9.00;99.90;;;;;;5103194;28;20396;-79
2023/12/24 01:13:33;;;;;;;15.90;3.20;;;9.00;99.90;;;;;;5106010;28;20400;-80
2023/12/24 01:16:01;;;;;;;14.70;3.27;;;9.00;99.90;;;;;;5100940;28;20404;-80
2023/12/24 01:18:27;;;;;;;16.53;3.57;;;9.00;99.90;;;;;;5103452;28;20929;-80
2023/12/24 01:20:52;;;;;;;12.77;2.90;;;9.00;99.90;;;;;;5099837;28;20409;-79
2023/12/24 01:23:18;;;;;;;11.38;2.60;;;9.00;99.90;;;;;;5103821;28;20411;-80
2023/12/24 01:25:44;;;;;;;12.30;2.90;;;9.00;99.90;;;;;;5083148;28;20398;-79
2023/12/24 01:28:10;;;;;;;10.77;2.60;;;9.00;99.90;;;;;;5103815;28;20389;-79
2023/12/24 01:30:36;;;;;;;15.13;2.90;;;8.90;99.90;;;;;;5092720;28;20889;-79
2023/12/24 01:33:01;;;;;;;13.37;2.57;;;9.00;99.90;;;;;;5074270;28;20408;-79
2023/12/24 01:35:27;;;;;;;16.38;3.35;;;9.00;99.90;;;;;;5096678;28;20390;-79
2023/12/24 01:37:52;;;;;;;11.90;2.63;;;8.90;99.90;;;;;;5097650;28;20492;-79
2023/12/24 01:40:18;;;;;;;11.63;3.13;;;9.00;99.90;;;;;;5099776;28;20458;-79
2023/12/24 01:42:46;;;;;;;11.35;2.78;;;8.90;99.90;;;;;;5102218;28;20392;-79
2023/12/24 01:45:12;;;;;;;12.30;2.83;;;9.00;99.90;;;;;;5098921;28;20439;-79
2023/12/24 01:47:39;;;;;;;14.40;2.90;;;9.00;99.90;;;;;;5102417;28;20496;-79
2023/12/24 01:50:06;;;;;;;14.07;2.73;;;9.00;99.90;;;;;;5100913;28;21002;-79
2023/12/24 01:52:31;;;;;;;15.77;2.83;;;9.00;99.90;;;;;;5096294;28;20409;-79
2023/12/24 01:54:57;;;;;;;9.75;2.45;;;9.00;99.90;;;;;;5079729;28;20398;-79
2023/12/24 01:57:23;;;;;;;12.33;2.70;;;9.00;99.90;;;;;;5102720;28;20929;-79
2023/12/24 01:59:50;;;;;;;10.65;2.80;;;9.00;99.90;;;;;;5097739;28;20455;-79
2023/12/24 02:02:17;;;;;;;11.20;2.70;;;9.00;99.90;;;;;;5102169;28;20408;-79
2023/12/24 02:04:43;;;;;;;10.52;2.90;;;9.00;99.90;;;;;;5098780;28;20410;-79
2023/12/24 02:07:11;;;;;;;12.57;3.00;;;9.00;99.90;;;;;;5097335;28;20455;-79
2023/12/24 02:09:36;;;;;;;8.10;2.70;;;9.00;99.90;;;;;;5096883;28;20818;-79
2023/12/24 02:12:02;;;;;;;10.50;2.53;;;9.00;99.90;;;;;;5102208;28;20392;-79
2023/12/24 02:14:28;;;;;;;9.80;2.80;;;9.00;99.90;;;;;;5098325;28;20409;-79
2023/12/24 02:16:57;;;;;;;10.47;2.80;;;9.00;99.90;;;;;;5101528;28;20408;-79
2023/12/24 02:19:22;;;;;;;9.95;2.42;;;9.00;99.90;;;;;;5098093;28;20505;-79
2023/12/24 02:21:48;;;;;;;12.38;2.70;;;9.00;99.90;;;;;;5102898;28;20957;-79
2023/12/24 02:24:15;;;;;;;10.17;2.37;;;9.00;99.90;;;;;;5097785;28;20402;-80
2023/12/24 02:26:58;;;;;;;7.55;2.13;;;9.00;99.90;;;;;;5095221;28;20432;-79
2023/12/24 02:29:28;;;;;;;8.38;2.35;;;9.00;99.90;;;;;;5091498;28;20398;-79
2023/12/24 02:32:04;;;;;;;10.65;2.40;;;9.00;99.90;;;;;;5105548;28;20403;-79
2023/12/24 02:34:31;;;;;;;7.88;2.35;;;9.00;99.90;;;;;;5110892;28;20889;-79
2023/12/24 02:36:57;;;;;;;6.50;2.35;;;9.00;99.90;;;;;;5107861;28;20851;-79
2023/12/24 02:39:23;;;;;;;8.18;2.45;;;9.00;99.90;;;;;;5091220;28;20398;-79
2023/12/24 02:41:49;;;;;;;8.57;2.70;;;9.00;99.90;;;;;;5090450;28;20760;-79
2023/12/24 02:44:14;;;;;;;10.20;2.60;;;9.10;99.90;;;;;;5090861;28;20398;-79
2023/12/24 02:46:40;;;;;;;11.20;3.20;;;9.00;99.90;;;;;;5091285;28;20401;-79
2023/12/24 02:49:05;;;;;;;12.05;3.45;;;9.10;99.90;;;;;;5089662;28;20788;-79
2023/12/24 02:51:31;;;;;;;9.70;3.40;;;9.10;99.90;;;;;;5089449;28;20399;-79
2023/12/24 02:53:57;;;;;;;10.27;2.80;;;9.10;99.90;;;;;;5090072;28;20398;-79
2023/12/24 02:56:22;;;;;;;11.50;3.20;;;9.10;99.90;;;;;;5091174;28;20396;-79
2023/12/24 02:58:48;;;;;;;9.07;3.37;;;9.10;99.90;;;;;;5089899;28;20488;-79
2023/12/24 03:01:14;;;;;;;9.88;3.20;;;9.10;99.90;;;;;;5091527;28;20408;-79
2023/12/24 03:03:39;;;;;;;9.00;3.03;;;9.10;99.90;;;;;;5091054;28;20955;-79
2023/12/24 03:06:05;;;;;;;8.37;2.77;;;9.10;99.90;;;;;;5092004;28;20804;-79
2023/12/24 03:08:31;;;;;;;9.55;2.80;;;9.10;99.90;;;;;;5089930;28;20410;-78
2023/12/24 03:10:56;;;;;;;11.50;3.25;;;9.20;99.90;;;;;;5090802;28;20961;-78
2023/12/24 03:13:22;;;;;;;13.83;3.40;;;9.10;99.90;;;;;;5091294;28;20414;-79
2023/12/24 03:15:47;;;;;;;12.80;3.38;;;9.20;99.90;;;;;;5088805;28;20408;-80
2023/12/24 03:18:13;;;;;;;17.30;3.77;;;9.10;99.90;;;;;;5090311;28;20429;-80
2023/12/24 03:20:38;;;;;;;12.68;4.10;;;9.20;99.90;;;;;;5089018;28;20403;-80
2023/12/24 03:23:04;;;;;;;13.83;4.10;;;9.20;99.90;;;;;;5089960;28;20405;-79
2023/12/24 03:25:30;;;;;;;12.18;3.17;;;9.10;99.90;;;;;;5090693;28;20445;-79
2023/12/24 03:27:55;;;;;;;11.70;2.97;;;9.20;99.90;;;;;;5101146;27;20407;-79
2023/12/24 03:30:21;;;;;;;11.43;3.30;;;9.20;99.90;;;;;;5090853;28;20409;-79
2023/12/24 03:32:47;;;;;;;9.88;2.80;;;9.20;99.90;;;;;;5095420;28;20421;-79
2023/12/24 03:35:12;;;;;;;9.43;2.43;;;9.20;99.90;;;;;;5089116;28;20405;-79
2023/12/24 03:37:38;;;;;;;10.23;2.75;;;9.20;99.90;;;;;;5089537;28;20434;-79
2023/12/24 03:40:04;;;;;;;9.10;2.60;;;9.20;99.90;;;;;;5102350;28;20413;-79
2023/12/24 03:42:29;;;;;;;8.17;2.50;;;9.20;99.90;;;;;;5092431;28;20464;-79
2023/12/24 03:44:55;;;;;;;6.03;2.50;;;9.20;99.90;;;;;;5105719;28;20906;-78
2023/12/24 03:47:21;;;;;;;7.85;2.28;;;9.20;99.90;;;;;;5103281;28;20516;-79
2023/12/24 03:49:46;;;;;;;7.23;2.10;;;9.30;99.90;;;;;;5101148;28;20892;-79
2023/12/24 03:52:12;;;;;;;7.95;2.00;;;9.20;99.90;;;;;;5099069;28;20400;-79
2023/12/24 03:54:37;;;;;;;8.77;2.20;;;9.20;99.90;;;;;;5104540;28;20793;-79
2023/12/24 03:57:03;;;;;;;6.68;1.58;;;9.20;99.90;;;;;;5095767;28;20426;-79
2023/12/24 03:59:30;;;;;;;7.90;1.67;;;9.30;99.90;;;;;;5101126;28;21883;-79
2023/12/24 04:01:55;;;;;;;8.68;1.95;;;9.30;99.90;;;;;;5096118;28;20398;-79
2023/12/24 04:04:21;;;;;;;7.05;1.35;;;9.30;99.90;;;;;;5101302;28;20411;-79
2023/12/24 04:06:47;;;;;;;7.03;1.20;;;9.30;99.90;;;;;;5101139;28;20398;-79
2023/12/24 04:09:12;;;;;;;7.65;1.40;;;9.30;99.90;;;;;;5097315;28;20403;-79
2023/12/24 04:11:38;;;;;;;5.03;1.00;;;9.30;99.90;;;;;;5103134;28;20393;-79
2023/12/24 04:14:04;;;;;;;6.23;1.00;;;9.30;99.90;;;;;;5106262;28;20408;-79
2023/12/24 04:16:29;;;;;;;5.78;1.00;;;9.30;99.90;;;;;;5104404;28;20488;-79
2023/12/24 04:18:55;;;;;;;4.83;1.30;;;9.30;99.90;;;;;;5106586;28;20510;-79
2023/12/24 04:21:20;;;;;;;4.87;1.27;;;9.40;99.90;;;;;;5103294;28;20453;-79
2023/12/24 04:23:46;;;;;;;4.10;1.13;;;9.30;99.90;;;;;;5106674;28;20527;-79
2023/12/24 04:26:12;;;;;;;2.57;0.90;;;9.30;99.90;;;;;;5100576;28;20459;-80
2023/12/24 04:28:37;;;;;;;3.92;1.10;;;9.40;99.90;;;;;;5105890;28;20489;-80
2023/12/24 04:31:03;;;;;;;4.17;1.00;;;9.40;99.90;;;;;;5103227;28;20398;-79
2023/12/24 04:33:29;;;;;;;4.47;1.10;;;9.40;99.90;;;;;;5104224;28;20905;-80
2023/12/24 04:35:55;;;;;;;4.28;1.10;;;9.40;99.90;;;;;;5102140;28;21042;-79
2023/12/24 04:38:21;;;;;;;4.35;1.00;;;9.40;99.90;;;;;;5095676;28;20430;-78
2023/12/24 04:40:46;;;;;;;3.47;0.90;;;9.40;99.90;;;;;;5097060;28;20398;-79
2023/12/24 04:43:12;;;;;;;3.70;0.93;;;9.40;99.90;;;;;;5096135;28;20401;-78
2023/12/24 04:45:37;;;;;;;4.90;1.17;;;9.40;99.90;;;;;;5103601;28;20402;-78
2023/12/24 04:48:03;;;;;;;2.53;0.90;;;9.50;99.90;;;;;;5106203;28;20436;-78
2023/12/24 04:50:29;;;;;;;3.55;1.10;;;9.50;99.90;;;;;;5102945;28;20919;-79
2023/12/24 04:52:55;;;;;;;2.55;1.08;;;9.50;99.90;;;;;;5104917;28;20408;-78
2023/12/24 04:55:20;;;;;;;2.45;1.00;;;9.50;99.90;;;;;;5102615;28;20406;-79
2023/12/24 04:57:46;;;;;;;3.60;1.07;;;9.40;99.90;;;;;;5104975;28;20489;-79
2023/12/24 05:00:12;;;;;;;3.75;1.30;;;9.50;99.90;;;;;;5101657;28;20406;-79
2023/12/24 05:02:38;;;;;;;2.95;1.65;;;9.50;99.90;;;;;;5105068;28;20411;-79
2023/12/24 05:05:03;;;;;;;3.43;1.40;;;9.50;99.90;;;;;;5100452;28;20406;-79
2023/12/24 05:07:30;;;;;;;3.33;1.77;;;9.50;99.90;;;;;;5104503;28;20397;-79
2023/12/24 05:09:56;;;;;;;4.60;1.60;;;9.50;99.90;;;;;;5099348;28;20416;-78
2023/12/24 05:12:21;;;;;;;3.73;1.43;;;9.50;99.90;;;;;;5104535;28;20396;-79
2023/12/24 05:14:47;;;;;;;3.95;1.80;;;9.50;99.90;;;;;;5099358;28;20985;-79
2023/12/24 05:17:13;;;;;;;3.42;1.70;;;9.50;99.90;;;;;;5102807;28;20428;-79
2023/12/24 05:19:39;;;;;;;3.23;1.23;;;9.50;99.90;;;;;;5099819;28;20753;-78
2023/12/24 05:22:04;;;;;;;5.40;1.90;;;9.60;99.90;;;;;;5105020;28;20871;-78
2023/12/24 05:24:30;;;;;;;4.32;1.45;;;9.60;99.90;;;;;;5100818;28;20435;-78
2023/12/24 05:26:55;;;;;;;5.43;1.80;;;9.60;99.90;;;;;;5103180;28;20789;-78
2023/12/24 05:29:21;;;;;;;6.03;2.00;;;9.60;99.90;;;;;;5099191;28;20433;-78
2023/12/24 05:31:47;;;;;;;4.70;1.80;;;9.60;99.90;;;;;;5104066;28;20425;-78
2023/12/24 05:34:12;;;;;;;6.88;2.10;;;9.60;99.90;;;;;;5099834;28;20409;-79
2023/12/24 05:36:39;;;;;;;5.53;2.13;;;9.60;99.90;;;;;;5103908;28;20469;-78
2023/12/24 05:39:05;;;;;;;4.10;1.58;;;9.70;99.90;;;;;;5098169;28;20430;-78
2023/12/24 05:41:32;;;;;;;5.03;2.10;;;9.60;99.90;;;;;;5096446;28;21148;-79
2023/12/24 05:43:58;;;;;;;6.65;2.13;;;9.70;99.90;;;;;;5097885;28;20417;-79
2023/12/24 05:46:24;;;;;;;5.30;1.80;;;9.60;99.90;;;;;;5104241;28;20454;-78
2023/12/24 05:48:50;;;;;;;7.28;2.25;;;9.70;99.90;;;;;;5101412;28;20438;-79
2023/12/24 05:51:16;;;;;;;7.10;2.40;;;9.70;99.90;;;;;;5105054;28;20435;-79
2023/12/24 05:53:41;;;;;;;7.43;2.42;;;9.70;99.90;;;;;;5090578;28;20850;-78
2023/12/24 05:56:08;;;;;;;6.60;2.47;;;9.70;99.90;;;;;;5104101;28;20411;-79
2023/12/24 05:58:34;;;;;;;9.38;2.60;;;9.80;99.90;;;;;;5101163;28;20997;-78
2023/12/24 06:01:00;;;;;;;11.07;3.10;;;9.80;99.90;;;;;;5103469;28;20404;-79
2023/12/24 06:03:26;;;;;;;7.32;2.88;;;9.80;99.90;;;;;;5100802;28;21272;-78
2023/12/24 06:05:51;;;;;;;9.55;3.55;;;9.80;99.90;;;;;;5103455;28;20408;-79
2023/12/24 06:08:17;;;;;;;9.80;3.43;;;9.80;99.90;;;;;;5101114;28;20398;-78
2023/12/24 06:10:43;;;;;;;10.63;3.40;;;9.80;99.90;;;;;;5104525;28;20437;-78
2023/12/24 06:13:11;;;;;;;10.73;3.75;;;9.80;99.90;;;;;;5099377;28;20442;-78
2023/12/24 06:15:37;;;;;;;12.95;3.42;;;9.90;99.90;;;;;;5103939;28;20412;-78
2023/12/24 06:18:04;;;;;;;13.10;3.38;;;9.90;99.90;;;;;;5098383;28;20456;-78
2023/12/24 06:20:32;;;;;;;12.27;3.67;;;9.90;99.90;;;;;;5093251;28;20487;-79
2023/12/24 06:22:58;;;;;;;13.70;3.97;;;9.90;99.90;;;;;;5098278;28;20977;-78
2023/12/24 06:25:24;;;;;;;14.35;3.50;;;9.90;99.90;;;;;;5096677;28;20489;-78
2023/12/24 06:27:49;;;;;;;12.75;3.20;;;9.90;99.90;;;;;;5098668;28;20489;-78
2023/12/24 06:30:15;;;;;;;18.13;4.03;;;9.90;99.90;;;;;;5097631;28;20397;-78
2023/12/24 06:32:41;;;;;;;16.17;4.13;;;9.90;99.90;;;;;;5101619;28;20395;-79
2023/12/24 06:35:08;;;;;;;16.48;4.38;;;9.90;99.90;;;;;;5095726;28;20416;-77
2023/12/24 06:37:33;;;;;;;21.02;4.35;;;9.90;99.90;;;;;;5091653;28;20508;-78
2023/12/24 06:39:59;;;;;;;18.23;4.43;;;9.90;99.90;;;;;;5104996;28;20926;-78
2023/12/24 06:42:25;;;;;;;14.95;4.20;;;9.90;99.90;;;;;;5094120;28;20822;-78
2023/12/24 06:44:50;;;;;;;25.23;4.93;;;9.90;99.90;;;;;;5108028;28;20399;-78
2023/12/24 06:47:16;;;;;;;17.30;4.20;;;9.90;99.90;;;;;;5105549;28;20501;-78
2023/12/24 06:49:44;;;;;;;17.00;4.27;;;9.90;99.90;;;;;;5108213;28;20503;-79
2023/12/24 06:52:10;;;;;;;16.35;3.65;;;9.90;99.90;;;;;;5093931;28;20406;-79
2023/12/24 06:54:36;;;;;;;16.05;4.40;;;10.00;99.90;;;;;;5108267;28;20392;-78
2023/12/24 06:57:02;;;;;;;18.65;4.65;;;10.00;99.90;;;;;;5103319;28;20854;-78
2023/12/24 06:59:28;;;;;;;13.55;3.90;;;10.00;99.90;;;;;;5088900;28;20412;-78
2023/12/24 07:01:54;;;;;;;13.60;4.20;;;10.00;99.90;;;;;;5104112;27;20475;-78
2023/12/24 07:04:19;;;;;;;16.27;4.20;;;10.00;99.90;;;;;;5107617;28;20503;-78
2023/12/24 07:06:45;;;;;;;15.88;3.75;;;10.00;99.90;;;;;;5102897;28;20920;-77
2023/12/24 07:09:11;;;;;;;14.40;4.33;;;10.00;99.90;;;;;;5098249;28;20400;-78
2023/12/24 07:11:36;;;;;;;17.23;3.40;;;10.00;99.90;;;;;;5103927;27;20818;-78
2023/12/24 07:14:03;;;;;;;14.85;3.80;;;10.00;99.90;;;;;;5107321;28;20436;-77
2023/12/24 07:16:29;;;;;;;10.50;3.17;;;10.00;99.90;;;;;;5101581;28;20470;-78
2023/12/24 07:18:54;;;;;;;13.13;3.55;;;10.10;99.90;;;;;;5106599;28;20424;-78
2023/12/24 07:21:20;;;;;;;11.95;3.38;;;10.10;99.90;;;;;;5101884;28;20410;-78
2023/12/24 07:23:46;;;;;;;12.07;3.13;;;10.10;99.90;;;;;;5105795;28;20412;-78
2023/12/24 07:26:12;;;;;;;14.65;3.65;;;10.10;99.90;;;;;;5102080;28;20420;-77
2023/12/24 07:28:38;;;;;;;14.97;3.60;;;10.20;99.90;;;;;;5105642;28;20408;-78
2023/12/24 07:31:04;;;;;;;15.60;3.30;;;10.20;99.90;;;;;;5100807;28;20783;-77
2023/12/24 07:33:29;;;;;;;14.45;3.70;;;10.20;99.90;;;;;;5096546;28;20890;-77
2023/12/24 07:35:55;;;;;;;11.68;3.25;;;10.20;99.90;;;;;;5100981;28;20433;-78
2023/12/24 07:38:21;;;;;;;15.80;3.47;;;10.20;99.90;;;;;;5104021;28;20435;-78
2023/12/24 07:40:46;;;;;;;16.52;3.72;;;10.20;99.90;;;;;;5100183;28;20421;-77
2023/12/24 07:43:12;;;;;;;14.23;3.50;;;10.20;99.90;;;;;;5098274;28;20475;-77
2023/12/24 07:45:37;;;;;;;16.25;3.88;;;10.30;99.90;;;;;;5105263;28;20776;-77
2023/12/24 07:48:03;;;;;;;12.23;3.33;;;10.30;99.90;;;;;;5107899;28;20404;-78
2023/12/24 07:50:29;;;;;;;14.02;3.30;;;10.30;99.90;;;;;;5104985;28;20402;-77
2023/12/24 07:52:55;;;;;;;20.60;4.03;;;10.30;99.90;;;;;;5108461;28;20412;-77
2023/12/24 07:55:21;;;;;;;16.80;3.55;;;10.30;99.90;;;;;;5093989;28;20406;-78
2023/12/24 07:57:46;;;;;;;20.23;3.78;;;10.30;99.90;;;;;;5084048;28;20526;-78
2023/12/24 08:00:12;;;;;;;17.20;3.73;;;10.40;99.90;;;;;;5073159;28;20440;-77
2023/12/24 08:02:38;;;;;;;14.15;3.85;;;10.40;99.90;;;;;;5088280;28;20678;-78
2023/12/24 08:05:04;;;;;;;16.08;4.00;;;10.40;99.90;;;;;;5080174;28;20417;-78
2023/12/24 08:07:30;;;;;;;15.55;3.40;;;10.40;99.90;;;;;;5082509;28;20414;-78
2023/12/24 08:09:56;;;;;;;17.10;3.60;;;10.40;99.90;;;;;;5077145;28;20489;-78
2023/12/24 08:12:22;;;;;;;15.98;3.92;;;10.40;99.90;;;;;;5078394;28;20909;-78
2023/12/24 08:14:47;;;;;;;19.00;4.78;;;10.40;99.90;;;;;;5088313;28;20417;-79
2023/12/24 08:17:13;;;;;;;18.37;4.10;;;10.40;99.90;;;;;;5086257;28;20794;-78
2023/12/24 08:19:39;;;;;;;17.38;3.97;;;10.40;99.90;;;;;;5070938;28;20930;-79
2023/12/24 08:22:05;;;;;;;18.65;4.05;;;10.40;99.90;;;;;;5075689;28;20396;-77
2023/12/24 08:24:31;;;;;;;15.27;3.90;;;10.40;99.90;;;;;;5083405;28;20911;-77
2023/12/24 08:26:57;;;;;;;16.05;3.83;;;10.40;99.90;;;;;;5077779;28;20404;-78
2023/12/24 08:29:22;;;;;;;17.58;3.65;;;10.40;99.90;;;;;;5078114;28;20749;-78
2023/12/24 08:31:48;;;;;;;18.50;4.23;;;10.40;99.90;;;;;;5071842;28;20446;-78
2023/12/24 08:34:14;;;;;;;19.23;4.43;;;10.40;99.90;;;;;;5084535;28;20405;-78
2023/12/24 08:36:39;;;;;;;18.40;3.90;;;10.50;99.90;;;;;;5081549;28;20633;-78
2023/12/24 08:39:05;;;;;;;17.42;4.63;;;10.50;99.90;;;;;;5079450;28;20886;-78
2023/12/24 08:41:31;;;;;;;15.13;3.97;;;10.50;99.90;;;;;;5083941;28;20791;-79
2023/12/24 08:43:57;;;;;;;16.83;4.03;;;10.50;99.90;;;;;;5076253;28;20414;-78
2023/12/24 08:46:23;;;;;;;15.63;3.97;;;10.50;99.90;;;;;;5086898;28;20451;-78
2023/12/24 08:48:48;;;;;;;13.97;3.90;;;10.50;99.90;;;;;;5090077;28;20821;-78
2023/12/24 08:51:14;;;;;;;17.08;4.00;;;10.50;99.90;;;;;;5099650;28;20398;-78
2023/12/24 08:53:40;;;;;;;15.90;3.90;;;10.50;99.90;;;;;;5088256;28;20482;-78
2023/12/24 08:56:06;;;;;;;16.30;4.05;;;10.50;99.90;;;;;;5094752;28;20412;-78
2023/12/24 08:58:31;;;;;;;16.47;3.60;;;10.50;99.90;;;;;;5090206;28;20426;-78
2023/12/24 09:00:57;;;;;;;12.50;3.50;;;10.50;99.90;;;;;;5092396;28;20905;-78
2023/12/24 09:03:23;;;;;;;14.93;4.00;;;10.60;99.90;;;;;;5097727;28;20421;-78
2023/12/24 09:05:48;;;;;;;13.88;3.45;;;10.50;99.90;;;;;;5101133;28;20443;-78
2023/12/24 09:08:14;;;;;;;15.30;3.67;;;10.60;99.90;;;;;;5098043;28;20394;-78
2023/12/24 09:10:41;;;;;;;14.90;3.13;;;10.60;99.90;;;;;;5092394;28;20499;-78
2023/12/24 09:13:07;;;;;;;15.50;4.03;;;10.60;99.90;;;;;;5089909;28;20406;-79
2023/12/24 09:15:32;;;;;;;19.85;5.53;;;10.60;99.90;;;;;;5099863;28;20404;-79
2023/12/24 09:17:58;;;;;;;17.57;4.10;;;10.60;99.90;;;;;;5097606;28;20425;-78
2023/12/24 09:20:23;;;;;;;13.50;4.13;;;10.70;99.90;;;;;;5084335;28;20453;-79
2023/12/24 09:22:49;;;;;;;13.53;4.13;;;10.70;99.90;;;;;;5091504;28;20477;-79
2023/12/24 09:25:15;;;;;;;19.63;4.72;;;10.70;99.90;;;;;;5091785;28;20442;-78
2023/12/24 09:27:40;;;;;;;16.95;3.72;;;10.70;99.90;;;;;;5090205;28;20394;-79
2023/12/24 09:30:06;;;;;;;18.07;4.10;;;10.70;99.90;;;;;;5095639;28;20396;-79
2023/12/24 09:32:32;;;;;;;13.40;3.47;;;10.80;99.90;;;;;;5098841;28;20941;-78
2023/12/24 09:34:58;;;;;;;16.30;3.57;;;10.70;99.90;;;;;;5092980;28;20404;-78
2023/12/24 09:37:27;;;;;;;15.85;3.83;;;10.80;99.90;;;;;;5090240;28;20864;-78
2023/12/24 09:39:52;;;;;;;15.20;3.50;;;10.80;99.90;;;;;;5091064;28;20467;-78
2023/12/24 09:42:18;;;;;;;16.23;3.90;;;10.80;99.90;;;;;;5088391;28;20471;-78
2023/12/24 09:44:45;;;;;;;17.88;4.38;;;10.80;99.90;;;;;;5104357;28;21160;-78
2023/12/24 09:47:10;;;;;;;14.73;3.88;;;10.80;99.90;;;;;;5090354;28;20433;-78
2023/12/24 09:49:36;;;;;;;16.27;3.60;;;10.80;99.90;;;;;;5103660;28;20400;-78
2023/12/24 09:52:02;;;;;;;16.17;3.40;;;10.80;99.90;;;;;;5101777;28;20402;-78
2023/12/24 09:54:27;;;;;;;15.25;3.30;;;10.80;99.90;;;;;;5105666;28;20404;-79
2023/12/24 09:56:54;;;;;;;15.10;3.23;;;10.80;99.90;;;;;;5093180;28;20461;-79
2023/12/24 09:59:20;;;;;;;16.85;3.67;;;10.80;99.90;;;;;;5095267;28;20462;-79
2023/12/24 10:01:46;;;;;;;14.90;3.23;;;10.90;99.90;;;;;;5091073;28;20863;-79
2023/12/24 10:04:13;;;;;;;13.73;3.30;;;10.90;99.90;;;;;;5101198;28;20423;-79
2023/12/24 10:06:52;;;;;;;14.43;2.97;;;10.90;99.90;;;;;;5092984;28;20421;-79
2023/12/24 10:09:21;;;;;;;16.60;3.47;;;10.90;99.90;;;;;;5101011;28;20412;-79
2023/12/24 10:12:04;;;;;;;21.40;3.47;;;10.90;99.90;;;;;;5092817;28;20422;-79
2023/12/24 10:14:29;;;;;;;15.63;3.03;;;10.90;99.90;;;;;;5078644;28;20417;-79
2023/12/24 10:16:55;;;;;;;16.98;3.63;;;10.90;99.90;;;;;;5091682;28;20420;-79
2023/12/24 10:19:25;;;;;;;17.67;3.47;;;10.90;99.90;;;;;;5095373;28;20416;-79
2023/12/24 10:22:00;;;;;;;14.13;2.97;;;10.90;99.90;;;;;;5089442;28;20436;-79
2023/12/24 10:24:31;;;;;;;13.52;3.45;;;11.00;99.90;;;;;;5090367;28;20429;-79
2023/12/24 10:27:10;;;;;;;14.60;3.40;;;11.00;99.90;;;;;;5095580;28;20415;-79
2023/12/24 10:29:40;;;;;;;18.52;3.90;;;11.00;99.90;;;;;;5093962;28;20448;-79
2023/12/24 10:32:09;;;;;;;14.93;3.05;;;11.00;99.90;;;;;;5082450;28;20779;-79
2023/12/24 10:34:35;;;;;;;14.15;3.13;;;11.00;99.90;;;;;;5095038;28;20414;-79
2023/12/24 10:37:21;;;;;;;15.88;3.10;;;11.00;99.90;;;;;;5089403;28;20945;-79
2023/12/24 10:39:48;;;;;;;14.45;2.85;;;11.00;99.90;;;;;;5088959;28;20914;-79
2023/12/24 10:42:13;;;;;;;15.52;3.70;;;11.00;99.90;;;;;;5088985;28;20427;-79
2023/12/24 10:44:39;;;;;;;12.60;3.10;;;11.10;99.90;;;;;;5096497;28;20416;-79
2023/12/24 10:47:05;;;;;;;17.40;3.20;;;11.10;99.90;;;;;;5090478;28;20763;-79
2023/12/24 10:49:31;;;;;;;14.60;3.20;;;11.10;99.90;;;;;;5107812;28;20487;-79
2023/12/24 10:51:59;;;;;;;12.77;3.05;;;11.20;99.90;;;;;;5096629;28;20935;-78
2023/12/24 10:54:25;;;;;;;13.60;2.92;;;11.20;99.90;;;;;;5106558;28;20495;-79
2023/12/24 10:57:03;;;;;;;12.13;2.10;;;11.20;99.90;;;;;;5097895;28;20430;-79
2023/12/24 11:00:00;;;;;;;17.00;3.03;;;11.20;99.90;;;;;;5107910;28;20469;-79
2023/12/24 11:02:28;;;;;;;15.15;3.10;;;11.30;99.90;;;;;;5098350;28;20432;-78
2023/12/24 11:04:57;;;;;;;11.87;2.87;;;11.30;99.90;;;;;;5093814;28;20544;-79
2023/12/24 11:07:34;;;;;;;11.82;2.35;;;11.40;99.90;;;;;;5092339;28;20418;-78
2023/12/24 11:10:01;;;;;;;15.52;2.90;;;11.40;99.90;;;;;;5096653;28;21330;-79
2023/12/24 11:12:38;;;;;;;14.35;2.63;;;11.50;99.90;;;;;;5092347;28;20471;-78
2023/12/24 11:15:09;;;;;;;13.93;2.58;;;11.50;99.90;;;;;;5093128;28;20414;-79
2023/12/24 11:17:35;;;;;;;13.35;2.88;;;11.50;99.90;;;;;;5103540;28;20432;-78
2023/12/24 11:20:26;;;;;;;11.40;2.63;;;11.60;99.90;;;;;;5086630;28;20440;-79
2023/12/24 11:23:04;;;;;;;9.65;2.10;;;11.60;99.90;;;;;;5088417;28;20501;-79
2023/12/24 11:25:35;;;;;;;10.07;2.40;;;11.70;99.90;;;;;;5100190;28;20441;-78
2023/12/24 11:28:01;;;;;;;13.48;2.28;;;11.70;99.90;;;;;;5091356;28;20772;-79
2023/12/24 11:30:27;;;;;;;8.75;1.80;;;11.70;99.90;;;;;;5090219;28;20451;-78
2023/12/24 11:32:52;;;;;;;14.13;2.20;;;11.70;99.90;;;;;;5090936;28;20432;-78
2023/12/24 11:35:52;;;;;;;12.50;1.95;;;11.70;99.90;;;;;;5090063;28;20509;-78
2023/12/24 11:38:33;;;;;;;10.10;2.10;;;11.70;99.90;;;;;;5097017;28;21010;-78
2023/12/24 11:41:13;;;;;;;10.40;1.85;;;11.70;99.90;;;;;;5069944;28;20466;-79
2023/12/24 11:43:41;;;;;;;11.45;1.88;;;11.70;99.90;;;;;;5089870;28;20433;-78
2023/12/24 11:46:10;;;;;;;10.45;1.90;;;11.70;99.90;;;;;;5106590;28;20406;-78
2023/12/24 11:48:36;;;;;;;11.05;1.90;;;11.70;99.90;;;;;;5097697;28;20426;-79
2023/12/24 11:51:06;;;;;;;10.13;1.90;;;11.70;99.90;;;;;;5100847;28;20427;-79
2023/12/24 11:53:36;;;;;;;13.05;2.60;;;11.70;99.90;;;;;;5099443;28;20422;-78
2023/12/24 11:56:09;;;;;;;12.23;2.20;;;11.70;99.90;;;;;;5107623;28;20408;-79
2023/12/24 11:58:35;;;;;;;10.82;1.90;;;11.60;99.90;;;;;;5091146;28;20426;-79
2023/12/24 12:01:04;;;;;;;8.93;1.80;;;11.70;99.90;;;;;;5106457;27;20484;-79
2023/12/24 12:03:35;;;;;;;10.07;1.80;;;11.70;99.90;;;;;;5091534;28;20500;-79
2023/12/24 12:06:01;;;;;;;11.48;1.98;;;11.70;99.90;;;;;;5099979;28;20933;-79
2023/12/24 12:08:28;;;;;;;9.73;2.08;;;11.80;99.90;;;;;;5095651;28;20938;-79
2023/12/24 12:10:54;;;;;;;10.45;2.00;;;11.80;99.90;;;;;;5096478;28;20792;-79
2023/12/24 12:13:19;;;;;;;11.32;2.35;;;11.80;99.90;;;;;;5100463;28;20412;-79
2023/12/24 12:15:45;;;;;;;10.23;1.80;;;11.80;99.90;;;;;;5095264;28;20424;-79
2023/12/24 12:18:12;;;;;;;15.20;2.15;;;11.90;99.90;;;;;;5100112;28;20524;-79
2023/12/24 12:20:38;;;;;;;11.70;2.20;;;11.90;99.90;;;;;;5095474;28;20512;-79
2023/12/24 12:23:03;;;;;;;9.70;1.90;;;11.90;99.90;;;;;;5095276;28;20521;-78
2023/12/24 12:25:29;;;;;;;12.68;2.20;;;11.90;99.90;;;;;;5086045;28;20434;-79
2023/12/24 12:27:55;;;;;;;12.63;2.60;;;11.90;99.90;;;;;;5099494;28;20409;-78
2023/12/24 12:30:22;;;;;;;11.65;2.50;;;11.90;99.90;;;;;;5095489;28;20971;-79
2023/12/24 12:32:48;;;;;;;9.38;1.83;;;11.90;99.90;;;;;;5096239;28;20416;-78
2023/12/24 12:35:14;;;;;;;11.45;2.10;;;11.90;99.90;;;;;;5086852;28;20434;-79
2023/12/24 12:37:40;;;;;;;11.23;2.20;;;12.00;99.90;;;;;;5089494;28;20509;-79
2023/12/24 12:40:07;;;;;;;13.02;2.20;;;11.90;99.90;;;;;;5093390;28;20551;-79
2023/12/24 12:42:33;;;;;;;11.23;1.88;;;11.90;99.90;;;;;;5091120;28;20397;-78